createdAt,value
2022-12-23T00:01:13.849Z,17.40
2022-12-23T00:03:40.489Z,12.98
2022-12-23T00:06:12.977Z,9.82
2022-12-23T00:08:39.680Z,9.73
2022-12-23T00:11:10.437Z,11.80
2022-12-23T00:13:55.473Z,12.35
2022-12-23T00:16:21.897Z,13.32
2022-12-23T00:18:48.530Z,11.75
2022-12-23T00:21:17.146Z,12.55
2022-12-23T00:23:46.314Z,7.20
2022-12-23T00:26:24.585Z,5.60
2022-12-23T00:28:51.371Z,7.38
2022-12-23T00:31:19.139Z,6.68
2022-12-23T00:33:48.486Z,6.07
2022-12-23T00:36:32.916Z,10.10
2022-12-23T00:39:18.811Z,7.20
2022-12-23T00:44:30.853Z,8.65
2022-12-23T00:46:57.457Z,6.53
2022-12-23T00:49:42.064Z,11.30
2022-12-23T00:52:12.074Z,8.85
2022-12-23T00:54:38.945Z,10.05
2022-12-23T00:57:05.747Z,8.77
2022-12-23T00:59:33.254Z,10.65
2022-12-23T01:02:25.632Z,6.10
2022-12-23T01:05:10.425Z,9.95
2022-12-23T01:07:36.920Z,5.95
2022-12-23T01:10:04.032Z,6.43
2022-12-23T01:12:30.409Z,6.03
2022-12-23T01:14:56.870Z,7.60
2022-12-23T01:17:23.417Z,6.70
2022-12-23T01:19:50.361Z,5.65
2022-12-23T01:22:16.839Z,7.38
2022-12-23T01:24:43.235Z,6.32
2022-12-23T01:27:09.673Z,6.50
2022-12-23T01:29:36.033Z,5.75
2022-12-23T01:32:02.596Z,5.53
2022-12-23T01:34:36.019Z,5.22
2022-12-23T01:37:03.331Z,5.75
2022-12-23T01:39:29.880Z,8.40
2022-12-23T01:42:14.655Z,5.13
2022-12-23T01:44:51.612Z,5.05
2022-12-23T01:47:27.740Z,5.07
2022-12-23T01:49:59.891Z,5.75
2022-12-23T01:52:26.539Z,6.65
2022-12-23T01:54:53.737Z,6.68
2022-12-23T01:57:20.613Z,7.72
2022-12-23T02:00:05.747Z,6.10
2022-12-23T02:02:54.647Z,7.28
2022-12-23T02:05:23.569Z,4.13
2022-12-23T02:08:10.817Z,5.70
2022-12-23T02:11:06.462Z,7.03
2022-12-23T02:14:01.559Z,5.03
2022-12-23T02:16:31.449Z,5.20
2022-12-23T02:19:10.169Z,4.95
2022-12-23T02:21:52.463Z,4.65
2022-12-23T02:24:56.215Z,6.50
2022-12-23T02:27:44.345Z,5.68
2022-12-23T02:30:40.922Z,6.63
2022-12-23T02:33:20.689Z,4.57
2022-12-23T02:38:48.256Z,6.18
2022-12-23T02:41:22.932Z,6.38
2022-12-23T02:44:00.423Z,4.25
2022-12-23T02:46:34.425Z,4.15
2022-12-23T02:49:13.840Z,5.50
2022-12-23T02:51:49.484Z,4.53
2022-12-23T02:54:22.583Z,6.03
2022-12-23T02:56:50.988Z,5.00
2022-12-23T02:59:24.759Z,4.55
2022-12-23T03:01:53.035Z,5.60
2022-12-23T03:04:19.829Z,4.07
2022-12-23T03:06:49.810Z,3.78
2022-12-23T03:09:44.937Z,6.70
2022-12-23T03:12:17.391Z,5.70
2022-12-23T03:15:05.167Z,5.05
2022-12-23T03:17:59.124Z,4.18
2022-12-23T03:20:28.304Z,3.92
2022-12-23T03:23:18.791Z,5.10
2022-12-23T03:25:56.287Z,4.38
2022-12-23T03:28:33.639Z,4.45
2022-12-23T03:31:03.759Z,3.70
2022-12-23T03:33:39.527Z,4.22
2022-12-23T03:36:29.929Z,6.72
2022-12-23T03:38:57.390Z,4.22
2022-12-23T03:41:30.911Z,4.35
2022-12-23T03:44:09.067Z,6.30
2022-12-23T03:46:43.396Z,5.28
2022-12-23T03:49:17.543Z,5.28
2022-12-23T03:51:53.709Z,4.07
2022-12-23T03:54:27.306Z,4.28
2022-12-23T03:59:36.090Z,4.82
2022-12-23T04:02:33.393Z,7.43
2022-12-23T04:05:07.194Z,5.53
2022-12-23T04:10:22.978Z,5.07
2022-12-23T04:12:49.714Z,5.07
2022-12-23T04:15:21.692Z,4.82
2022-12-23T04:17:49.181Z,4.38
2022-12-23T04:20:15.962Z,7.93
2022-12-23T04:22:43.747Z,4.95
2022-12-23T04:25:12.020Z,5.03
2022-12-23T04:27:38.863Z,7.72
2022-12-23T04:30:07.141Z,4.20
2022-12-23T04:32:33.853Z,4.15
2022-12-23T04:35:00.323Z,5.00
2022-12-23T04:37:26.748Z,5.30
2022-12-23T04:39:53.104Z,3.53
2022-12-23T04:42:19.521Z,4.68
2022-12-23T04:44:45.877Z,3.65
2022-12-23T04:47:12.278Z,5.07
2022-12-23T04:49:38.736Z,4.85
2022-12-23T04:52:05.439Z,4.45
2022-12-23T04:54:31.822Z,5.47
2022-12-23T04:56:58.221Z,6.32
2022-12-23T04:59:24.580Z,4.07
2022-12-23T05:01:51.201Z,5.97
2022-12-23T05:04:17.815Z,4.80
2022-12-23T05:06:44.361Z,4.53
2022-12-23T05:09:10.812Z,4.78
2022-12-23T05:11:41.849Z,3.63
2022-12-23T05:14:12.195Z,3.30
2022-12-23T05:16:40.107Z,4.78
2022-12-23T05:19:06.791Z,3.85
2022-12-23T05:21:33.371Z,3.10
2022-12-23T05:23:59.765Z,3.03
2022-12-23T05:26:26.131Z,3.35
2022-12-23T05:28:52.597Z,3.60
2022-12-23T05:31:19.257Z,4.15
2022-12-23T05:33:45.661Z,4.70
2022-12-23T05:36:12.813Z,4.30
2022-12-23T05:38:39.255Z,4.32
2022-12-23T05:41:05.986Z,3.53
2022-12-23T05:43:32.499Z,4.07
2022-12-23T05:45:58.911Z,5.38
2022-12-23T05:48:25.319Z,3.72
2022-12-23T05:50:53.211Z,4.97
2022-12-23T05:53:20.491Z,6.43
2022-12-23T05:55:47.469Z,4.57
2022-12-23T05:58:14.455Z,5.43
2022-12-23T06:00:40.846Z,4.90
2022-12-23T06:03:07.316Z,5.68
2022-12-23T06:05:36.439Z,7.97
2022-12-23T06:08:02.803Z,4.40
2022-12-23T06:10:29.289Z,4.30
2022-12-23T06:12:55.684Z,4.03
2022-12-23T06:15:22.124Z,4.15
2022-12-23T06:17:49.476Z,2.53
2022-12-23T06:20:20.220Z,1.88
2022-12-23T06:22:47.597Z,1.77
2022-12-23T06:25:14.040Z,2.53
2022-12-23T06:27:40.422Z,2.15
2022-12-23T06:30:07.729Z,1.38
2022-12-23T06:32:38.257Z,2.67
2022-12-23T06:35:06.599Z,1.85
2022-12-23T06:37:33.037Z,1.33
2022-12-23T06:39:59.530Z,1.75
2022-12-23T06:42:25.926Z,1.85
2022-12-23T06:44:52.380Z,2.50
2022-12-23T06:47:18.737Z,1.60
2022-12-23T06:49:45.220Z,1.67
2022-12-23T06:52:11.570Z,1.27
2022-12-23T06:54:38.067Z,1.38
2022-12-23T06:57:04.793Z,1.23
2022-12-23T06:59:31.559Z,2.30
2022-12-23T07:01:58.157Z,1.30
2022-12-23T07:04:24.706Z,1.70
2022-12-23T07:06:51.076Z,1.60
2022-12-23T07:09:17.690Z,1.73
2022-12-23T07:11:44.253Z,0.80
2022-12-23T07:14:10.826Z,1.55
2022-12-23T07:16:37.390Z,2.45
2022-12-23T07:19:03.931Z,1.65
2022-12-23T07:21:30.539Z,2.28
2022-12-23T07:23:56.979Z,0.98
2022-12-23T07:26:23.488Z,0.65
2022-12-23T07:28:49.861Z,0.75
2022-12-23T07:31:16.548Z,1.00
2022-12-23T07:33:43.388Z,0.95
2022-12-23T07:36:09.861Z,1.08
2022-12-23T07:38:36.576Z,1.20
2022-12-23T07:41:03.185Z,1.23
2022-12-23T07:43:29.679Z,0.90
2022-12-23T07:46:00.428Z,1.33
2022-12-23T07:48:27.464Z,1.67
2022-12-23T07:50:59.584Z,1.25
2022-12-23T07:53:25.951Z,2.10
2022-12-23T07:55:56.409Z,1.27
2022-12-23T07:58:23.614Z,1.63
2022-12-23T08:00:50.258Z,1.27
2022-12-23T08:03:16.921Z,1.27
2022-12-23T08:05:43.453Z,1.00
2022-12-23T08:08:09.819Z,0.80
2022-12-23T08:10:36.175Z,0.68
2022-12-23T08:13:02.556Z,1.50
2022-12-23T08:15:28.901Z,0.90
2022-12-23T08:17:56.579Z,1.10
2022-12-23T08:20:23.041Z,0.77
2022-12-23T08:22:49.553Z,1.25
2022-12-23T08:25:16.033Z,1.73
2022-12-23T08:27:42.425Z,1.58
2022-12-23T08:30:09.605Z,1.83
2022-12-23T08:32:36.041Z,1.65
2022-12-23T08:35:02.373Z,1.35
2022-12-23T08:37:28.814Z,1.75
2022-12-23T08:39:55.571Z,2.33
2022-12-23T08:42:21.990Z,2.78
2022-12-23T08:44:48.353Z,2.63
2022-12-23T08:47:14.839Z,1.33
2022-12-23T08:49:41.351Z,2.70
2022-12-23T08:52:07.822Z,3.17
2022-12-23T08:54:34.362Z,2.22
2022-12-23T08:57:00.777Z,2.15
2022-12-23T08:59:27.165Z,2.70
2022-12-23T09:04:28.758Z,3.47
2022-12-23T09:06:55.115Z,8.77
2022-12-23T09:09:21.594Z,11.60
2022-12-23T09:11:48.033Z,8.85
2022-12-23T09:14:14.554Z,12.98
2022-12-23T09:16:40.975Z,18.88
2022-12-23T09:19:07.967Z,17.27
2022-12-23T09:21:35.002Z,9.68
2022-12-23T09:24:01.606Z,10.15
2022-12-23T09:26:30.255Z,13.02
2022-12-23T09:28:57.231Z,18.58
2022-12-23T09:31:27.887Z,24.50
2022-12-23T09:33:58.837Z,18.20
2022-12-23T09:36:25.311Z,9.23
2022-12-23T09:38:56.031Z,4.95
2022-12-23T09:41:53.704Z,4.18
2022-12-23T09:44:48.818Z,6.38
2022-12-23T09:47:19.915Z,3.78
2022-12-23T09:49:56.599Z,4.22
2022-12-23T09:52:30.893Z,5.55
2022-12-23T09:54:57.297Z,6.85
2022-12-23T09:57:36.269Z,5.35
2022-12-23T10:00:15.410Z,6.15
2022-12-23T10:03:13.044Z,5.65
2022-12-23T10:05:56.311Z,4.68
2022-12-23T10:08:35.888Z,4.32
2022-12-23T10:13:45.508Z,5.43
2022-12-23T10:16:18.172Z,9.38
2022-12-23T10:18:57.471Z,19.38
2022-12-23T10:21:35.302Z,8.07
2022-12-23T10:24:12.145Z,9.43
2022-12-23T10:27:04.210Z,7.47
2022-12-23T10:29:32.465Z,5.68
2022-12-23T10:32:01.589Z,5.53
2022-12-23T10:34:54.954Z,5.25
2022-12-23T10:37:29.242Z,4.82
2022-12-23T10:40:17.699Z,5.10
2022-12-23T10:42:46.607Z,4.75
2022-12-23T10:45:39.013Z,4.57
2022-12-23T10:48:47.862Z,5.20
2022-12-23T10:51:23.126Z,4.25
2022-12-23T10:53:54.001Z,4.65
2022-12-23T10:56:21.129Z,4.03
2022-12-23T10:58:54.335Z,5.75
2022-12-23T11:01:27.085Z,4.22
2022-12-23T11:04:15.136Z,4.30
2022-12-23T11:07:10.672Z,4.32
2022-12-23T11:09:44.163Z,4.22
2022-12-23T11:12:12.074Z,4.45
2022-12-23T11:14:57.658Z,3.53
2022-12-23T11:20:10.514Z,3.67
2022-12-23T11:22:47.679Z,3.42
2022-12-23T11:25:24.922Z,5.35
2022-12-23T11:27:56.902Z,3.97
2022-12-23T11:30:23.419Z,2.45
2022-12-23T11:32:51.216Z,3.75
2022-12-23T11:35:32.060Z,3.30
2022-12-23T11:38:00.727Z,3.75
2022-12-23T11:40:30.391Z,4.20
2022-12-23T11:42:59.885Z,4.68
2022-12-23T11:45:34.167Z,5.85
2022-12-23T11:48:00.666Z,4.65
2022-12-23T11:50:33.101Z,5.22
2022-12-23T11:53:20.469Z,4.43
2022-12-23T11:56:08.789Z,4.10
2022-12-23T11:58:44.903Z,4.40
2022-12-23T12:01:18.819Z,5.20
2022-12-23T12:03:49.801Z,4.53
2022-12-23T12:06:19.467Z,3.97
2022-12-23T12:08:50.250Z,3.67
2022-12-23T12:11:29.715Z,4.00
2022-12-23T12:14:21.520Z,3.53
2022-12-23T12:16:57.752Z,4.07
2022-12-23T12:19:29.983Z,4.15
2022-12-23T12:22:02.296Z,4.82
2022-12-23T12:24:36.780Z,4.45
2022-12-23T12:27:06.667Z,4.35
2022-12-23T12:29:44.250Z,3.33
2022-12-23T12:32:49.627Z,4.65
2022-12-23T12:35:22.749Z,4.22
2022-12-23T12:37:57.572Z,4.32
2022-12-23T12:40:42.306Z,4.18
2022-12-23T12:43:16.659Z,4.60
2022-12-23T12:45:52.506Z,4.03
2022-12-23T12:48:36.427Z,2.75
2022-12-23T12:51:12.158Z,4.60
2022-12-23T12:53:53.625Z,3.65
2022-12-23T12:56:30.573Z,3.90
2022-12-23T12:58:57.066Z,3.58
2022-12-23T13:01:42.957Z,3.42
2022-12-23T13:04:21.705Z,3.10
2022-12-23T13:06:57.259Z,4.13
2022-12-23T13:09:44.294Z,4.20
2022-12-23T13:12:30.908Z,4.78
2022-12-23T13:15:23.520Z,5.97
2022-12-23T13:18:11.045Z,5.03
2022-12-23T13:20:48.685Z,6.70
2022-12-23T13:23:45.837Z,5.90
2022-12-23T13:26:23.486Z,5.70
2022-12-23T13:29:01.415Z,10.70
2022-12-23T13:31:49.871Z,7.75
2022-12-23T13:34:19.173Z,8.07
2022-12-23T13:36:56.836Z,7.57
2022-12-23T13:39:38.762Z,9.05
2022-12-23T13:42:09.474Z,7.63
2022-12-23T13:44:36.618Z,4.90
2022-12-23T13:47:21.818Z,5.13
2022-12-23T13:50:07.854Z,5.63
2022-12-23T13:52:43.728Z,6.20
2022-12-23T13:55:24.700Z,5.65
2022-12-23T13:57:54.159Z,5.78
2022-12-23T14:00:20.518Z,4.78
2022-12-23T14:03:02.222Z,10.00
2022-12-23T14:05:51.893Z,8.15
2022-12-23T14:08:18.198Z,5.47
2022-12-23T14:10:55.027Z,8.98
2022-12-23T14:13:23.847Z,6.70
2022-12-23T14:16:11.915Z,8.57
2022-12-23T14:19:11.476Z,6.57
2022-12-23T14:21:50.418Z,10.70
2022-12-23T14:25:16.537Z,9.60
2022-12-23T14:28:06.777Z,9.18
2022-12-23T14:30:40.412Z,8.23
2022-12-23T14:33:18.856Z,6.25
2022-12-23T14:35:45.276Z,7.47
2022-12-23T14:38:14.610Z,6.25
2022-12-23T14:40:47.083Z,7.90
2022-12-23T14:43:50.985Z,7.82
2022-12-23T14:49:36.869Z,8.27
2022-12-23T14:51:51.910Z,7.57
2022-12-23T14:54:38.368Z,8.88
2022-12-23T14:57:17.448Z,7.28
2022-12-23T15:00:02.872Z,8.45
2022-12-23T15:02:37.043Z,8.75
2022-12-23T15:05:04.253Z,8.95
2022-12-23T15:07:46.027Z,9.90
2022-12-23T15:10:23.891Z,9.15
2022-12-23T15:12:54.837Z,9.90
2022-12-23T15:15:23.242Z,9.25
2022-12-23T15:18:02.104Z,11.20
2022-12-23T15:20:28.734Z,12.52
2022-12-23T15:23:01.029Z,10.25
2022-12-23T15:25:33.509Z,10.15
2022-12-23T15:28:02.763Z,18.98
2022-12-23T15:30:34.582Z,17.25
2022-12-23T15:33:28.007Z,15.32
2022-12-23T15:35:54.025Z,12.18
2022-12-23T15:38:22.211Z,16.25
2022-12-23T15:41:01.288Z,15.95
2022-12-23T15:43:28.233Z,23.05
2022-12-23T15:45:54.729Z,24.05
2022-12-23T15:48:28.823Z,29.30
2022-12-23T15:51:00.801Z,23.50
2022-12-23T15:53:39.519Z,18.13
2022-12-23T15:56:19.530Z,19.67
2022-12-23T15:58:46.246Z,31.33
2022-12-23T16:01:18.324Z,16.23
2022-12-23T16:03:52.139Z,13.20
2022-12-23T16:06:27.115Z,15.60
2022-12-23T16:09:19.845Z,17.58
2022-12-23T16:12:20.529Z,18.88
2022-12-23T16:15:39.574Z,25.65
2022-12-23T16:18:13.504Z,15.90
2022-12-23T16:20:47.324Z,15.30
2022-12-23T16:23:16.623Z,23.67
2022-12-23T16:25:50.798Z,17.90
2022-12-23T16:28:30.314Z,10.45
2022-12-23T16:30:58.290Z,11.10
2022-12-23T16:33:33.260Z,15.95
2022-12-23T16:36:18.720Z,16.77
2022-12-23T16:38:45.563Z,22.75
2022-12-23T16:41:12.285Z,35.97
2022-12-23T16:43:38.792Z,11.90
2022-12-23T16:46:05.791Z,8.75
2022-12-23T16:48:42.191Z,8.20
2022-12-23T16:51:13.145Z,4.97
2022-12-23T16:53:39.661Z,9.35
2022-12-23T16:56:11.787Z,7.82
2022-12-23T16:58:38.534Z,6.05
2022-12-23T17:01:05.446Z,8.38
2022-12-23T17:03:32.905Z,5.18
2022-12-23T17:08:25.682Z,3.05
2022-12-23T17:10:52.392Z,4.30
2022-12-23T17:13:18.976Z,2.60
2022-12-23T17:15:45.432Z,2.00
2022-12-23T17:18:13.840Z,2.10
2022-12-23T17:20:41.201Z,2.42
2022-12-23T17:23:25.712Z,2.05
2022-12-23T17:25:52.371Z,2.40
2022-12-23T17:28:19.535Z,2.08
2022-12-23T17:30:45.957Z,2.25
2022-12-23T17:33:18.475Z,2.70
2022-12-23T17:35:44.853Z,2.17
2022-12-23T17:38:16.045Z,1.65
2022-12-23T17:40:45.119Z,1.90
2022-12-23T17:43:16.572Z,1.40
2022-12-23T17:45:44.597Z,1.50
2022-12-23T17:48:17.937Z,1.90
2022-12-23T17:50:47.567Z,1.00
2022-12-23T17:53:16.068Z,1.83
2022-12-23T17:55:42.663Z,1.35
2022-12-23T17:58:09.983Z,1.05
2022-12-23T18:00:38.043Z,1.58
2022-12-23T18:03:06.329Z,1.42
2022-12-23T18:05:36.072Z,1.02
2022-12-23T18:08:03.538Z,1.38
2022-12-23T18:13:02.550Z,1.65
2022-12-23T18:15:37.813Z,1.02
2022-12-23T18:18:33.031Z,0.98
2022-12-23T18:21:02.196Z,1.10
2022-12-23T18:23:31.366Z,2.15
2022-12-23T18:25:58.718Z,1.50
2022-12-23T18:28:26.148Z,1.50
2022-12-23T18:33:20.972Z,2.15
2022-12-23T18:35:49.524Z,2.33
2022-12-23T18:38:17.526Z,2.00
2022-12-23T18:40:44.686Z,1.20
2022-12-23T18:43:21.691Z,1.40
2022-12-23T18:45:52.810Z,1.17
2022-12-23T18:48:19.819Z,1.77
2022-12-23T18:50:46.791Z,1.08
2022-12-23T18:53:23.706Z,1.50
2022-12-23T18:55:51.718Z,1.85
2022-12-23T18:58:19.197Z,1.95
2022-12-23T19:00:46.776Z,0.88
2022-12-23T19:03:25.500Z,1.70
2022-12-23T19:05:52.862Z,2.03
2022-12-23T19:10:53.425Z,1.05
2022-12-23T19:13:20.274Z,1.30
2022-12-23T19:15:46.773Z,1.40
2022-12-23T19:18:15.889Z,1.85
2022-12-23T19:20:43.942Z,1.77
2022-12-23T19:23:11.435Z,0.93
2022-12-23T19:25:41.494Z,1.33
2022-12-23T19:28:08.133Z,1.23
2022-12-23T19:30:34.564Z,0.65
2022-12-23T19:33:01.065Z,1.42
2022-12-23T19:35:28.717Z,1.15
2022-12-23T19:37:55.145Z,0.70
2022-12-23T19:40:21.673Z,1.65
2022-12-23T19:42:48.229Z,1.20
2022-12-23T19:45:14.690Z,0.70
2022-12-23T19:47:41.082Z,1.58
2022-12-23T19:50:08.293Z,0.70
2022-12-23T19:52:34.916Z,2.13
2022-12-23T19:55:01.389Z,0.95
2022-12-23T19:57:27.819Z,1.00
2022-12-23T19:59:54.362Z,2.42
2022-12-23T20:02:20.897Z,1.42
2022-12-23T20:04:47.370Z,1.63
2022-12-23T20:07:13.757Z,2.80
2022-12-23T20:09:40.249Z,1.48
2022-12-23T20:12:06.820Z,1.25
2022-12-23T20:14:34.431Z,1.52
2022-12-23T20:17:01.142Z,2.80
2022-12-23T20:19:27.731Z,1.88
2022-12-23T20:21:54.117Z,2.20
2022-12-23T20:24:20.515Z,1.50
2022-12-23T20:26:47.522Z,1.10
2022-12-23T20:29:14.453Z,1.00
2022-12-23T20:31:41.284Z,1.30
2022-12-23T20:34:14.306Z,0.88
2022-12-23T20:36:41.012Z,1.17
2022-12-23T20:39:08.111Z,1.58
2022-12-23T20:41:35.298Z,1.48
2022-12-23T20:44:33.310Z,1.42
2022-12-23T20:46:49.052Z,1.50
2022-12-23T20:49:15.897Z,1.83
2022-12-23T20:51:42.261Z,1.73
2022-12-23T20:54:09.296Z,2.55
2022-12-23T20:56:35.805Z,1.92
2022-12-23T20:59:03.812Z,1.75
2022-12-23T21:01:35.908Z,2.88
2022-12-23T21:04:05.651Z,1.55
2022-12-23T21:06:32.246Z,1.90
2022-12-23T21:09:00.095Z,1.00
2022-12-23T21:11:31.414Z,1.48
2022-12-23T21:14:06.188Z,3.08
2022-12-23T21:16:35.009Z,2.00
2022-12-23T21:19:01.541Z,1.52
2022-12-23T21:21:29.019Z,3.67
2022-12-23T21:26:28.102Z,2.08
2022-12-23T21:28:58.989Z,2.10
2022-12-23T21:31:26.733Z,1.77
2022-12-23T21:33:53.741Z,0.82
2022-12-23T21:36:26.031Z,2.05
2022-12-23T21:38:52.821Z,2.55
2022-12-23T21:41:22.421Z,2.55
2022-12-23T21:43:49.747Z,2.42
2022-12-23T21:46:18.886Z,1.40
2022-12-23T21:48:45.987Z,1.45
2022-12-23T21:51:20.168Z,1.85
2022-12-23T21:53:48.984Z,2.92
2022-12-23T21:56:17.910Z,1.25
2022-12-23T21:58:44.647Z,1.10
2022-12-23T22:01:16.918Z,2.05
2022-12-23T22:03:44.533Z,2.75
2022-12-23T22:06:14.317Z,1.17
2022-12-23T22:08:41.138Z,0.88
2022-12-23T22:11:12.944Z,1.73
2022-12-23T22:13:40.328Z,0.98
2022-12-23T22:16:15.601Z,1.55
2022-12-23T22:18:42.951Z,2.83
2022-12-23T22:21:15.071Z,1.23
2022-12-23T22:23:41.878Z,5.22
2022-12-23T22:26:10.115Z,2.58
2022-12-23T22:28:37.688Z,1.10
2022-12-23T22:31:06.762Z,0.70
2022-12-23T22:33:33.865Z,1.95
2022-12-23T22:36:00.774Z,2.20
2022-12-23T22:38:27.608Z,1.40
2022-12-23T22:40:54.381Z,2.90
2022-12-23T22:43:20.943Z,0.57
2022-12-23T22:45:47.415Z,2.92
2022-12-23T22:48:15.220Z,2.70
2022-12-23T22:50:41.599Z,1.60
2022-12-23T22:53:10.946Z,2.63
2022-12-23T22:55:37.402Z,1.02
2022-12-23T22:58:03.783Z,1.38
2022-12-23T23:00:30.262Z,1.98
2022-12-23T23:02:56.665Z,2.20
2022-12-23T23:05:23.087Z,1.77
2022-12-23T23:07:49.485Z,1.73
2022-12-23T23:10:16.462Z,2.70
2022-12-23T23:12:44.342Z,2.20
2022-12-23T23:15:11.120Z,2.70
2022-12-23T23:17:37.741Z,2.13
2022-12-23T23:20:04.546Z,1.55
2022-12-23T23:22:30.979Z,1.83
2022-12-23T23:24:57.377Z,2.63
2022-12-23T23:27:23.747Z,2.22
2022-12-23T23:29:50.099Z,7.03
2022-12-23T23:32:16.568Z,2.50
2022-12-23T23:34:43.046Z,3.63
2022-12-23T23:37:09.460Z,4.72
2022-12-23T23:39:35.845Z,2.15
2022-12-23T23:42:02.185Z,4.30
2022-12-23T23:44:28.577Z,3.63
2022-12-23T23:46:54.988Z,2.85
2022-12-23T23:49:22.103Z,3.58
2022-12-23T23:51:50.077Z,5.63
2022-12-23T23:54:16.903Z,1.33
2022-12-23T23:56:43.272Z,3.20
2022-12-23T23:59:09.740Z,2.58
